createdAt,value
2018-11-07T00:00:52.968Z,4.98
2018-11-07T00:03:20.204Z,4.86
2018-11-07T00:05:47.397Z,4.98
2018-11-07T00:08:14.815Z,5.04
2018-11-07T00:10:41.913Z,4.95
2018-11-07T00:13:09.141Z,4.92
2018-11-07T00:15:36.380Z,4.78
2018-11-07T00:18:03.665Z,4.64
2018-11-07T00:20:30.872Z,4.74
2018-11-07T00:22:58.083Z,4.72
2018-11-07T00:25:25.281Z,4.75
2018-11-07T00:27:52.525Z,4.75
2018-11-07T00:30:19.761Z,4.78
2018-11-07T00:32:46.917Z,4.89
2018-11-07T00:35:14.122Z,4.93
2018-11-07T00:37:41.999Z,4.86
2018-11-07T00:40:09.248Z,4.93
2018-11-07T00:42:36.439Z,4.99
2018-11-07T00:45:04.740Z,4.77
2018-11-07T00:47:31.919Z,4.65
2018-11-07T00:49:59.084Z,4.70
2018-11-07T00:52:26.280Z,4.82
2018-11-07T00:54:53.424Z,4.89
2018-11-07T00:57:20.568Z,4.83
2018-11-07T00:59:47.724Z,4.86
2018-11-07T01:02:15.040Z,4.88
2018-11-07T01:04:42.223Z,4.96
2018-11-07T01:07:09.437Z,5.09
2018-11-07T01:09:36.771Z,5.21
2018-11-07T01:12:04.308Z,5.08
2018-11-07T01:14:31.541Z,5.13
2018-11-07T01:16:58.732Z,5.08
2018-11-07T01:19:25.872Z,5.16
2018-11-07T01:21:52.998Z,5.07
2018-11-07T01:24:20.156Z,5.00
2018-11-07T01:26:47.311Z,5.04
2018-11-07T01:29:14.464Z,5.00
2018-11-07T01:31:41.702Z,5.10
2018-11-07T01:34:08.923Z,5.07
2018-11-07T01:36:36.151Z,5.07
2018-11-07T01:39:05.093Z,5.11
2018-11-07T01:41:32.286Z,5.07
2018-11-07T01:43:59.423Z,5.06
2018-11-07T01:46:26.608Z,4.99
2018-11-07T01:48:53.815Z,4.97
2018-11-07T01:51:21.022Z,5.02
2018-11-07T01:53:48.155Z,4.92
2018-11-07T01:56:15.426Z,4.90
2018-11-07T01:58:42.665Z,4.89
2018-11-07T02:01:09.841Z,4.93
2018-11-07T02:03:36.988Z,4.92
2018-11-07T02:06:04.200Z,4.93
2018-11-07T02:08:31.609Z,4.96
2018-11-07T02:10:59.636Z,5.05
2018-11-07T02:13:26.820Z,5.16
2018-11-07T02:15:53.974Z,5.11
2018-11-07T02:18:21.127Z,4.58
2018-11-07T02:20:48.348Z,5.40
2018-11-07T02:23:15.509Z,5.42
2018-11-07T02:25:42.687Z,5.43
2018-11-07T02:28:09.935Z,5.43
2018-11-07T02:30:37.162Z,5.58
2018-11-07T02:33:04.381Z,5.49
2018-11-07T02:35:31.562Z,5.53
2018-11-07T02:37:58.714Z,5.50
2018-11-07T02:40:25.936Z,5.48
2018-11-07T02:42:53.124Z,5.56
2018-11-07T02:45:20.463Z,5.61
2018-11-07T02:47:47.638Z,5.57
2018-11-07T02:50:14.848Z,5.66
2018-11-07T02:52:42.041Z,5.64
2018-11-07T02:55:09.248Z,5.64
2018-11-07T02:57:36.562Z,5.71
2018-11-07T03:00:11.880Z,5.79
2018-11-07T03:02:39.095Z,5.86
2018-11-07T03:05:06.289Z,5.88
2018-11-07T03:07:33.428Z,5.95
2018-11-07T03:10:00.734Z,5.95
2018-11-07T03:12:27.917Z,5.98
2018-11-07T03:14:55.105Z,6.01
2018-11-07T03:17:22.304Z,6.03
2018-11-07T03:19:49.492Z,6.05
2018-11-07T03:22:16.660Z,6.01
2018-11-07T03:24:43.809Z,6.05
2018-11-07T03:27:11.022Z,6.33
2018-11-07T03:29:38.224Z,6.35
2018-11-07T03:32:05.488Z,6.31
2018-11-07T03:34:32.668Z,6.43
2018-11-07T03:36:59.875Z,6.55
2018-11-07T03:39:27.128Z,6.39
2018-11-07T03:41:54.264Z,6.47
2018-11-07T03:44:21.500Z,6.56
2018-11-07T03:46:48.672Z,6.56
2018-11-07T03:49:15.876Z,6.44
2018-11-07T03:51:43.111Z,6.38
2018-11-07T03:54:10.291Z,6.37
2018-11-07T03:56:37.468Z,6.46
2018-11-07T03:59:04.601Z,6.57
2018-11-07T04:01:31.760Z,6.55
2018-11-07T04:03:58.964Z,6.58
2018-11-07T04:06:26.143Z,6.42
2018-11-07T04:08:53.361Z,6.35
2018-11-07T04:11:20.564Z,6.29
2018-11-07T04:13:47.741Z,6.30
2018-11-07T04:16:14.926Z,6.26
2018-11-07T04:18:42.151Z,6.31
2018-11-07T04:21:09.317Z,6.32
2018-11-07T04:23:36.578Z,6.35
2018-11-07T04:26:04.576Z,6.39
2018-11-07T04:28:31.796Z,6.36
2018-11-07T04:30:58.992Z,6.39
2018-11-07T04:33:26.204Z,6.50
2018-11-07T04:35:53.383Z,6.46
2018-11-07T04:38:20.607Z,6.45
2018-11-07T04:40:47.787Z,6.33
2018-11-07T04:43:14.983Z,6.22
2018-11-07T04:45:42.156Z,6.29
2018-11-07T04:48:09.409Z,6.35
2018-11-07T04:50:36.575Z,6.37
2018-11-07T04:53:03.981Z,6.39
2018-11-07T04:55:31.199Z,6.42
2018-11-07T04:57:58.432Z,6.38
2018-11-07T05:00:25.712Z,6.37
2018-11-07T05:02:52.967Z,6.41
2018-11-07T05:05:20.200Z,6.47
2018-11-07T05:07:47.390Z,6.43
2018-11-07T05:10:14.576Z,6.43
2018-11-07T05:12:41.766Z,6.42
2018-11-07T05:15:09.599Z,6.52
2018-11-07T05:17:36.800Z,6.55
2018-11-07T05:20:05.576Z,6.57
2018-11-07T05:22:32.789Z,6.66
2018-11-07T05:25:00.093Z,6.70
2018-11-07T05:27:27.293Z,6.72
2018-11-07T05:29:54.455Z,6.85
2018-11-07T05:32:21.700Z,6.87
2018-11-07T05:34:48.936Z,6.91
2018-11-07T05:37:16.103Z,6.88
2018-11-07T05:39:43.256Z,6.68
2018-11-07T05:42:11.598Z,6.76
2018-11-07T05:44:38.863Z,6.72
2018-11-07T05:47:06.104Z,6.56
2018-11-07T05:49:33.273Z,6.68
2018-11-07T05:52:00.502Z,6.63
2018-11-07T05:54:27.664Z,6.71
2018-11-07T05:56:54.843Z,6.80
2018-11-07T05:59:22.000Z,6.88
2018-11-07T06:01:49.202Z,6.93
2018-11-07T06:04:16.360Z,6.89
2018-11-07T06:06:43.547Z,6.83
2018-11-07T06:09:10.724Z,6.79
2018-11-07T06:11:37.920Z,6.75
2018-11-07T06:14:05.400Z,6.84
2018-11-07T06:16:32.549Z,6.81
2018-11-07T06:18:59.752Z,6.79
2018-11-07T06:21:26.952Z,6.84
2018-11-07T06:23:54.196Z,6.89
2018-11-07T06:26:21.348Z,6.87
2018-11-07T06:28:48.570Z,6.88
2018-11-07T06:31:15.748Z,6.87
2018-11-07T06:33:43.100Z,6.86
2018-11-07T06:36:10.433Z,7.08
2018-11-07T06:38:37.649Z,7.14
2018-11-07T06:41:04.885Z,7.08
2018-11-07T06:43:32.096Z,7.05
2018-11-07T06:45:59.259Z,7.03
2018-11-07T06:48:26.484Z,7.02
2018-11-07T06:50:53.684Z,7.05
2018-11-07T06:53:20.953Z,7.09
2018-11-07T06:55:48.166Z,7.06
2018-11-07T06:58:15.329Z,7.04
2018-11-07T07:00:42.538Z,7.15
2018-11-07T07:03:09.757Z,7.32
2018-11-07T07:05:36.998Z,7.25
2018-11-07T07:08:04.396Z,7.22
2018-11-07T07:10:31.567Z,7.24
2018-11-07T07:12:58.800Z,7.34
2018-11-07T07:15:25.989Z,7.46
2018-11-07T07:17:53.227Z,7.29
2018-11-07T07:20:20.788Z,7.29
2018-11-07T07:22:48.547Z,7.42
2018-11-07T07:25:15.886Z,7.45
2018-11-07T07:27:43.901Z,7.45
2018-11-07T07:30:12.744Z,7.56
2018-11-07T07:32:40.776Z,7.47
2018-11-07T07:35:07.972Z,7.37
2018-11-07T07:37:35.183Z,7.35
2018-11-07T07:40:03.239Z,7.31
2018-11-07T07:42:30.759Z,7.32
2018-11-07T07:44:57.912Z,7.39
2018-11-07T07:47:25.065Z,7.39
2018-11-07T07:49:52.301Z,7.40
2018-11-07T07:52:19.450Z,7.41
2018-11-07T07:54:46.724Z,7.46
2018-11-07T07:57:13.969Z,7.49
2018-11-07T07:59:41.088Z,7.49
2018-11-07T08:02:08.250Z,7.50
2018-11-07T08:04:35.437Z,7.54
2018-11-07T08:07:02.743Z,7.58
2018-11-07T08:09:29.773Z,7.57
2018-11-07T08:11:56.920Z,7.61
2018-11-07T08:14:24.097Z,7.60
2018-11-07T08:16:51.828Z,7.67
2018-11-07T08:19:19.020Z,7.68
2018-11-07T08:21:46.262Z,7.72
2018-11-07T08:24:13.416Z,7.76
2018-11-07T08:26:40.568Z,7.81
2018-11-07T08:29:07.770Z,7.81
2018-11-07T08:31:34.982Z,7.82
2018-11-07T08:34:02.189Z,7.76
2018-11-07T08:36:29.508Z,7.83
2018-11-07T08:38:57.541Z,7.81
2018-11-07T08:41:24.784Z,7.84
2018-11-07T08:43:51.921Z,7.88
2018-11-07T08:46:19.420Z,7.90
2018-11-07T08:48:46.639Z,7.90
2018-11-07T08:51:14.201Z,7.92
2018-11-07T08:53:41.376Z,8.15
2018-11-07T08:56:08.539Z,8.14
2018-11-07T08:58:35.741Z,8.05
2018-11-07T09:01:03.017Z,8.17
2018-11-07T09:03:30.228Z,8.23
2018-11-07T09:05:58.140Z,8.39
2018-11-07T09:08:25.326Z,8.48
2018-11-07T09:10:52.929Z,8.46
2018-11-07T09:13:20.249Z,8.39
2018-11-07T09:15:47.578Z,8.49
2018-11-07T09:18:14.796Z,8.47
2018-11-07T09:20:41.981Z,8.61
2018-11-07T09:23:09.225Z,8.58
2018-11-07T09:25:36.376Z,8.63
2018-11-07T09:28:03.623Z,8.66
2018-11-07T09:30:31.722Z,8.58
2018-11-07T09:32:59.937Z,8.57
2018-11-07T09:35:27.822Z,8.58
2018-11-07T09:37:55.115Z,8.58
2018-11-07T09:40:22.369Z,8.64
2018-11-07T09:42:50.043Z,8.82
2018-11-07T09:45:18.592Z,8.73
2018-11-07T09:47:46.669Z,8.67
2018-11-07T09:50:15.427Z,8.88
2018-11-07T09:52:43.096Z,8.98
2018-11-07T09:55:12.227Z,8.85
2018-11-07T09:57:39.845Z,8.97
2018-11-07T10:00:09.150Z,8.94
2018-11-07T10:02:36.695Z,8.94
2018-11-07T10:05:04.613Z,8.83
2018-11-07T10:07:31.848Z,8.86
2018-11-07T10:09:59.054Z,8.95
2018-11-07T10:12:33.166Z,8.71
2018-11-07T10:15:00.393Z,8.78
2018-11-07T10:17:28.251Z,8.81
2018-11-07T10:19:55.537Z,8.96
2018-11-07T10:22:22.751Z,9.05
2018-11-07T10:24:50.349Z,9.01
2018-11-07T10:27:17.700Z,8.94
2018-11-07T10:29:45.144Z,8.88
2018-11-07T10:32:12.178Z,8.93
2018-11-07T10:34:39.485Z,8.95
2018-11-07T10:37:06.629Z,8.98
2018-11-07T10:39:33.823Z,8.83
2018-11-07T10:42:01.021Z,8.83
2018-11-07T10:44:28.307Z,8.93
2018-11-07T10:46:55.529Z,9.02
2018-11-07T10:49:22.752Z,9.10
2018-11-07T10:51:50.456Z,9.21
2018-11-07T10:54:17.613Z,9.14
2018-11-07T10:56:44.751Z,9.21
2018-11-07T10:59:12.917Z,9.14
2018-11-07T11:01:45.829Z,9.26
2018-11-07T11:04:13.178Z,9.11
2018-11-07T11:06:40.498Z,8.98
2018-11-07T11:09:07.969Z,9.22
2018-11-07T11:11:35.101Z,9.35
2018-11-07T11:14:02.461Z,9.19
2018-11-07T11:16:29.733Z,9.27
2018-11-07T11:18:56.864Z,9.30
2018-11-07T11:21:24.047Z,9.38
2018-11-07T11:23:51.285Z,9.30
2018-11-07T11:26:18.457Z,9.42
2018-11-07T11:28:45.702Z,9.29
2018-11-07T11:31:12.877Z,9.38
2018-11-07T11:33:40.356Z,9.51
2018-11-07T11:36:07.587Z,9.72
2018-11-07T11:38:34.806Z,9.81
2018-11-07T11:41:02.132Z,9.99
2018-11-07T11:43:29.235Z,9.96
2018-11-07T11:45:56.395Z,9.95
2018-11-07T11:48:23.600Z,9.72
2018-11-07T11:50:50.909Z,9.96
2018-11-07T11:53:18.086Z,10.05
2018-11-07T11:55:45.236Z,9.88
2018-11-07T11:58:12.437Z,10.16
2018-11-07T12:00:39.639Z,10.27
2018-11-07T12:03:06.774Z,10.34
2018-11-07T12:05:33.932Z,10.39
2018-11-07T12:08:01.152Z,10.51
2018-11-07T12:10:28.281Z,10.53
2018-11-07T12:12:56.561Z,10.61
2018-11-07T12:15:24.999Z,10.64
2018-11-07T12:17:52.604Z,10.61
2018-11-07T12:20:19.871Z,10.70
2018-11-07T12:22:47.106Z,10.60
2018-11-07T12:25:14.993Z,10.65
2018-11-07T12:27:42.516Z,11.12
2018-11-07T12:30:12.063Z,11.12
2018-11-07T12:32:39.260Z,11.04
2018-11-07T12:35:06.464Z,10.91
2018-11-07T12:37:33.675Z,11.04
2018-11-07T12:40:00.907Z,11.51
2018-11-07T12:42:28.261Z,11.71
2018-11-07T12:44:55.550Z,12.20
2018-11-07T12:47:22.713Z,12.32
2018-11-07T12:49:49.982Z,12.59
2018-11-07T12:52:17.012Z,13.08
2018-11-07T12:54:44.196Z,13.20
2018-11-07T12:57:11.390Z,13.76
2018-11-07T12:59:38.586Z,14.02
2018-11-07T13:02:05.788Z,14.17
2018-11-07T13:04:33.004Z,14.59
2018-11-07T13:07:00.157Z,14.81
2018-11-07T13:09:27.342Z,14.59
2018-11-07T13:11:54.541Z,14.58
2018-11-07T13:14:21.686Z,14.34
2018-11-07T13:16:48.878Z,14.19
2018-11-07T13:19:16.076Z,13.90
2018-11-07T13:21:43.253Z,13.95
2018-11-07T13:24:10.430Z,13.12
2018-11-07T13:26:37.560Z,12.60
2018-11-07T13:29:04.733Z,12.21
2018-11-07T13:31:31.882Z,12.47
2018-11-07T13:33:59.082Z,13.03
2018-11-07T13:36:26.277Z,13.84
2018-11-07T13:38:53.944Z,14.70
2018-11-07T13:41:20.742Z,15.02
2018-11-07T13:43:47.936Z,15.26
2018-11-07T13:46:15.303Z,15.13
2018-11-07T13:48:42.513Z,15.19
2018-11-07T13:51:10.263Z,15.33
2018-11-07T13:53:37.550Z,15.47
2018-11-07T13:56:04.853Z,15.64
2018-11-07T13:58:31.978Z,15.86
2018-11-07T14:00:59.156Z,15.96
2018-11-07T14:03:26.390Z,15.85
2018-11-07T14:05:53.646Z,15.83
2018-11-07T14:08:20.840Z,16.13
2018-11-07T14:10:48.004Z,16.06
2018-11-07T14:13:15.189Z,16.01
2018-11-07T14:15:42.460Z,15.55
2018-11-07T14:18:09.749Z,15.72
2018-11-07T14:20:37.125Z,15.76
2018-11-07T14:23:04.337Z,15.97
2018-11-07T14:25:31.620Z,15.87
2018-11-07T14:27:59.002Z,15.80
2018-11-07T14:30:26.154Z,15.91
2018-11-07T14:32:56.629Z,15.31
2018-11-07T14:35:23.945Z,15.42
2018-11-07T14:37:51.599Z,15.40
2018-11-07T14:40:18.812Z,15.47
2018-11-07T14:42:45.978Z,15.44
2018-11-07T14:45:13.241Z,15.09
2018-11-07T14:47:41.264Z,14.91
2018-11-07T14:50:09.577Z,14.40
2018-11-07T14:52:37.147Z,14.33
2018-11-07T14:55:07.360Z,14.28
2018-11-07T14:57:35.196Z,14.12
2018-11-07T15:00:02.566Z,13.88
2018-11-07T15:02:29.782Z,13.89
2018-11-07T15:04:57.016Z,13.68
2018-11-07T15:07:24.194Z,13.36
2018-11-07T15:09:51.403Z,13.14
2018-11-07T15:12:18.668Z,12.86
2018-11-07T15:14:45.884Z,12.75
2018-11-07T15:17:13.187Z,12.51
2018-11-07T15:19:40.342Z,12.24
2018-11-07T15:22:07.789Z,12.02
2018-11-07T15:24:34.968Z,11.88
2018-11-07T15:27:02.180Z,12.05
2018-11-07T15:29:29.388Z,12.25
2018-11-07T15:31:56.537Z,12.16
2018-11-07T15:34:23.749Z,11.95
2018-11-07T15:36:50.905Z,11.74
2018-11-07T15:39:18.121Z,11.58
2018-11-07T15:41:45.338Z,11.36
2018-11-07T15:44:19.165Z,11.24
2018-11-07T15:46:46.343Z,11.10
2018-11-07T15:49:13.713Z,10.89
2018-11-07T15:51:40.938Z,10.71
2018-11-07T15:54:08.158Z,10.42
2018-11-07T15:56:35.705Z,10.53
2018-11-07T15:59:03.066Z,10.39
2018-11-07T16:01:30.555Z,10.30
2018-11-07T16:03:59.154Z,10.41
2018-11-07T16:06:26.732Z,10.38
2018-11-07T16:08:55.415Z,10.33
2018-11-07T16:11:22.659Z,10.14
2018-11-07T16:13:50.039Z,10.15
2018-11-07T16:16:17.118Z,10.02
2018-11-07T16:18:44.380Z,9.89
2018-11-07T16:21:11.598Z,9.93
2018-11-07T16:23:38.785Z,9.87
2018-11-07T16:26:06.029Z,9.71
2018-11-07T16:28:33.237Z,9.71
2018-11-07T16:31:00.482Z,9.66
2018-11-07T16:33:27.703Z,9.46
2018-11-07T16:35:54.966Z,9.28
2018-11-07T16:38:22.256Z,9.28
2018-11-07T16:40:49.531Z,9.03
2018-11-07T16:43:16.693Z,8.97
2018-11-07T16:45:43.861Z,8.77
2018-11-07T16:48:11.040Z,8.85
2018-11-07T16:50:38.483Z,8.73
2018-11-07T16:53:05.900Z,8.74
2018-11-07T16:55:33.177Z,8.68
2018-11-07T16:58:00.613Z,8.88
2018-11-07T17:00:27.928Z,9.09
2018-11-07T17:02:57.481Z,9.06
2018-11-07T17:05:24.740Z,9.03
2018-11-07T17:07:52.140Z,8.84
2018-11-07T17:10:19.343Z,8.73
2018-11-07T17:12:46.567Z,8.64
2018-11-07T17:15:14.036Z,8.62
2018-11-07T17:17:41.293Z,8.43
2018-11-07T17:20:10.121Z,8.43
2018-11-07T17:22:37.386Z,8.36
2018-11-07T17:25:07.750Z,8.36
2018-11-07T17:27:35.156Z,8.26
2018-11-07T17:30:02.750Z,8.28
2018-11-07T17:32:29.963Z,8.46
2018-11-07T17:34:57.205Z,8.50
2018-11-07T17:37:24.872Z,8.56
2018-11-07T17:39:52.685Z,8.50
2018-11-07T17:42:19.906Z,8.48
2018-11-07T17:44:47.146Z,8.35
2018-11-07T17:47:14.390Z,8.34
2018-11-07T17:49:41.554Z,8.27
2018-11-07T17:52:08.797Z,8.18
2018-11-07T17:54:36.024Z,8.12
2018-11-07T17:57:03.232Z,8.12
2018-11-07T17:59:30.435Z,8.10
2018-11-07T18:01:57.638Z,7.89
2018-11-07T18:04:24.845Z,7.87
2018-11-07T18:06:52.093Z,7.76
2018-11-07T18:09:19.337Z,7.64
2018-11-07T18:11:46.516Z,7.59
2018-11-07T18:14:13.672Z,7.48
2018-11-07T18:16:40.884Z,7.49
2018-11-07T18:19:08.518Z,7.08
2018-11-07T18:21:35.676Z,7.03
2018-11-07T18:24:02.913Z,7.03
2018-11-07T18:26:30.161Z,7.06
2018-11-07T18:28:57.513Z,6.99
2018-11-07T18:31:24.718Z,7.26
2018-11-07T18:33:51.979Z,7.01
2018-11-07T18:36:19.298Z,6.84
2018-11-07T18:38:46.490Z,6.79
2018-11-07T18:41:13.776Z,6.99
2018-11-07T18:43:40.981Z,6.95
2018-11-07T18:46:08.188Z,6.88
2018-11-07T18:48:35.359Z,6.90
2018-11-07T18:51:02.555Z,6.82
2018-11-07T18:53:29.758Z,6.94
2018-11-07T18:55:56.937Z,6.98
2018-11-07T18:58:24.351Z,7.07
2018-11-07T19:00:51.657Z,7.23
2018-11-07T19:03:18.913Z,7.20
2018-11-07T19:05:46.251Z,7.10
2018-11-07T19:08:13.514Z,7.08
2018-11-07T19:10:40.757Z,6.88
2018-11-07T19:13:07.967Z,6.78
2018-11-07T19:15:35.253Z,6.71
2018-11-07T19:18:02.472Z,6.84
2018-11-07T19:20:29.718Z,6.68
2018-11-07T19:22:56.911Z,6.62
2018-11-07T19:25:24.182Z,6.61
2018-11-07T19:27:51.353Z,6.51
2018-11-07T19:30:19.792Z,6.57
2018-11-07T19:32:48.067Z,6.61
2018-11-07T19:35:16.221Z,6.37
2018-11-07T19:37:43.925Z,6.44
2018-11-07T19:40:12.597Z,6.33
2018-11-07T19:42:39.987Z,6.29
2018-11-07T19:45:09.348Z,6.30
2018-11-07T19:47:37.133Z,6.15
2018-11-07T19:50:05.953Z,6.26
2018-11-07T19:52:33.212Z,6.26
2018-11-07T19:55:00.489Z,6.31
2018-11-07T19:57:27.671Z,6.33
2018-11-07T19:59:54.868Z,6.39
2018-11-07T20:02:22.258Z,6.43
2018-11-07T20:04:49.538Z,6.56
2018-11-07T20:07:16.829Z,6.60
2018-11-07T20:09:44.089Z,6.59
2018-11-07T20:12:11.450Z,6.52
2018-11-07T20:14:38.719Z,6.52
2018-11-07T20:17:06.315Z,6.59
2018-11-07T20:19:33.579Z,6.67
2018-11-07T20:22:00.827Z,6.74
2018-11-07T20:24:28.085Z,6.72
2018-11-07T20:26:55.435Z,5.90
2018-11-07T20:29:22.696Z,6.62
2018-11-07T20:31:50.033Z,6.60
2018-11-07T20:34:17.286Z,6.64
2018-11-07T20:36:44.704Z,6.52
2018-11-07T20:39:13.048Z,6.46
2018-11-07T20:41:40.970Z,6.61
2018-11-07T20:44:09.084Z,6.69
2018-11-07T20:46:36.469Z,6.60
2018-11-07T20:49:04.327Z,6.60
2018-11-07T20:51:31.484Z,6.58
2018-11-07T20:53:59.138Z,6.65
2018-11-07T20:56:26.340Z,6.54
2018-11-07T20:58:53.517Z,6.56
2018-11-07T21:01:20.811Z,6.68
2018-11-07T21:03:48.105Z,6.64
2018-11-07T21:06:15.286Z,6.60
2018-11-07T21:08:42.596Z,6.62
2018-11-07T21:11:16.775Z,6.67
2018-11-07T21:13:44.042Z,6.76
2018-11-07T21:16:11.209Z,6.64
2018-11-07T21:18:38.666Z,6.67
2018-11-07T21:21:05.914Z,6.72
2018-11-07T21:23:33.184Z,6.86
2018-11-07T21:26:00.424Z,6.80
2018-11-07T21:28:27.667Z,6.85
2018-11-07T21:30:54.875Z,6.86
2018-11-07T21:33:22.157Z,6.92
2018-11-07T21:35:50.322Z,6.94
2018-11-07T21:38:17.583Z,7.03
2018-11-07T21:40:44.824Z,7.17
2018-11-07T21:43:12.354Z,7.32
2018-11-07T21:45:39.602Z,7.38
2018-11-07T21:48:06.860Z,7.23
2018-11-07T21:50:34.067Z,7.22
2018-11-07T21:53:01.285Z,7.29
2018-11-07T21:55:28.476Z,7.37
2018-11-07T21:57:55.718Z,7.37
2018-11-07T22:00:23.012Z,7.44
2018-11-07T22:02:50.281Z,7.37
2018-11-07T22:05:17.762Z,7.43
2018-11-07T22:07:45.024Z,7.18
2018-11-07T22:10:13.480Z,7.02
2018-11-07T22:12:40.760Z,6.90
2018-11-07T22:15:08.926Z,7.06
2018-11-07T22:17:36.261Z,6.98
2018-11-07T22:20:09.803Z,6.96
2018-11-07T22:22:37.049Z,7.02
2018-11-07T22:25:04.916Z,7.06
2018-11-07T22:27:32.176Z,7.15
2018-11-07T22:29:59.720Z,7.17
2018-11-07T22:32:27.115Z,7.17
2018-11-07T22:34:54.364Z,7.24
2018-11-07T22:37:21.607Z,7.20
2018-11-07T22:39:48.854Z,7.25
2018-11-07T22:42:16.093Z,7.21
2018-11-07T22:44:43.276Z,7.19
2018-11-07T22:47:10.518Z,7.28
2018-11-07T22:49:37.850Z,7.18
2018-11-07T22:52:05.501Z,7.19
2018-11-07T22:54:32.698Z,7.17
2018-11-07T22:57:00.221Z,7.24
2018-11-07T22:59:27.408Z,7.20
2018-11-07T23:01:54.673Z,7.28
2018-11-07T23:04:21.881Z,7.29
2018-11-07T23:41:12.359Z,7.42
2018-11-07T23:43:39.661Z,7.42
2018-11-07T23:54:38.176Z,7.37
2018-11-07T23:57:05.564Z,7.30
2018-11-07T23:59:32.775Z,7.28
